createdAt,value
2019-06-26T00:01:28.762Z,11.75
2019-06-26T00:03:59.066Z,11.85
2019-06-26T00:06:29.447Z,12.37
2019-06-26T00:09:00.047Z,12.90
2019-06-26T00:11:30.372Z,12.78
2019-06-26T00:14:01.008Z,11.40
2019-06-26T00:16:31.481Z,12.20
2019-06-26T00:19:01.746Z,12.73
2019-06-26T00:21:32.330Z,13.03
2019-06-26T00:24:02.705Z,12.88
2019-06-26T00:26:32.961Z,13.53
2019-06-26T00:29:03.291Z,12.68
2019-06-26T00:31:33.742Z,12.65
2019-06-26T00:34:04.030Z,12.30
2019-06-26T00:36:34.360Z,12.95
2019-06-26T00:39:06.703Z,12.43
2019-06-26T00:41:37.519Z,12.25
2019-06-26T00:44:07.935Z,11.85
2019-06-26T00:46:38.550Z,12.05
2019-06-26T00:49:09.673Z,12.00
2019-06-26T00:51:39.919Z,13.15
2019-06-26T00:54:10.505Z,12.82
2019-06-26T00:56:41.013Z,11.93
2019-06-26T00:59:11.508Z,12.07
2019-06-26T01:01:42.447Z,12.55
2019-06-26T01:04:16.846Z,12.43
2019-06-26T01:09:16.564Z,11.78
2019-06-26T01:11:46.775Z,12.25
2019-06-26T01:14:17.028Z,11.63
2019-06-26T01:16:47.333Z,11.95
2019-06-26T01:19:18.073Z,12.15
2019-06-26T01:21:48.359Z,12.40
2019-06-26T01:24:18.789Z,12.05
2019-06-26T01:26:49.055Z,12.07
2019-06-26T01:29:19.310Z,11.73
2019-06-26T01:31:49.543Z,12.18
2019-06-26T01:34:19.786Z,12.88
2019-06-26T01:36:50.068Z,12.20
2019-06-26T01:39:20.707Z,11.68
2019-06-26T01:41:51.505Z,12.15
2019-06-26T01:44:21.885Z,11.83
2019-06-26T01:46:52.423Z,12.35
2019-06-26T01:49:22.791Z,11.35
2019-06-26T01:51:53.098Z,12.30
2019-06-26T01:54:23.392Z,11.73
2019-06-26T01:56:53.667Z,12.53
2019-06-26T01:59:23.895Z,11.15
2019-06-26T02:01:54.256Z,11.30
2019-06-26T02:04:24.429Z,11.70
2019-06-26T02:06:55.074Z,12.10
2019-06-26T02:09:27.436Z,12.28
2019-06-26T02:12:00.478Z,12.18
2019-06-26T02:14:31.889Z,11.97
2019-06-26T02:17:02.829Z,11.38
2019-06-26T02:19:33.236Z,11.55
2019-06-26T02:22:03.565Z,11.05
2019-06-26T02:24:33.840Z,11.28
2019-06-26T02:27:04.099Z,12.40
2019-06-26T02:29:34.809Z,11.10
2019-06-26T02:32:05.134Z,11.53
2019-06-26T02:34:35.339Z,10.95
2019-06-26T02:37:05.689Z,10.95
2019-06-26T02:39:36.257Z,11.65
2019-06-26T02:42:06.934Z,11.25
2019-06-26T02:44:52.037Z,10.80
2019-06-26T02:47:19.865Z,10.55
2019-06-26T02:49:41.983Z,11.65
2019-06-26T02:52:12.199Z,11.15
2019-06-26T02:54:42.449Z,11.08
2019-06-26T02:57:13.025Z,10.85
2019-06-26T02:59:43.356Z,11.12
2019-06-26T03:02:13.973Z,10.55
2019-06-26T03:04:44.534Z,10.63
2019-06-26T03:07:14.772Z,11.25
2019-06-26T03:09:45.002Z,10.65
2019-06-26T03:12:15.238Z,10.53
2019-06-26T03:14:45.846Z,10.35
2019-06-26T03:17:16.535Z,10.90
2019-06-26T03:19:47.644Z,11.15
2019-06-26T03:22:18.392Z,10.93
2019-06-26T03:24:48.679Z,10.50
2019-06-26T03:27:18.945Z,9.83
2019-06-26T03:29:49.175Z,10.48
2019-06-26T03:32:19.765Z,10.72
2019-06-26T03:34:50.081Z,10.32
2019-06-26T03:37:20.691Z,9.95
2019-06-26T03:39:51.369Z,10.38
2019-06-26T03:42:22.041Z,9.90
2019-06-26T03:44:52.469Z,9.70
2019-06-26T03:47:23.075Z,10.58
2019-06-26T03:49:53.443Z,9.63
2019-06-26T03:52:24.278Z,9.33
2019-06-26T03:54:54.656Z,9.90
2019-06-26T03:57:25.710Z,9.75
2019-06-26T03:59:56.005Z,9.80
2019-06-26T04:02:26.255Z,9.65
2019-06-26T04:04:56.673Z,9.30
2019-06-26T04:07:27.308Z,9.60
2019-06-26T04:09:57.725Z,9.90
2019-06-26T04:12:29.268Z,9.83
2019-06-26T04:14:59.558Z,10.08
2019-06-26T04:17:29.946Z,9.33
2019-06-26T04:20:00.147Z,9.25
2019-06-26T04:22:30.711Z,9.55
2019-06-26T04:25:01.078Z,8.90
2019-06-26T04:27:31.391Z,9.53
2019-06-26T04:30:01.987Z,10.10
2019-06-26T04:32:32.994Z,9.68
2019-06-26T04:35:03.309Z,9.48
2019-06-26T04:37:33.701Z,9.38
2019-06-26T04:40:08.615Z,9.80
2019-06-26T04:42:39.183Z,9.98
2019-06-26T04:45:11.277Z,9.68
2019-06-26T04:47:41.560Z,9.53
2019-06-26T04:50:13.827Z,10.08
2019-06-26T04:52:44.164Z,9.40
2019-06-26T04:55:14.871Z,9.90
2019-06-26T04:57:45.306Z,9.93
2019-06-26T05:00:16.523Z,9.58
2019-06-26T05:02:46.742Z,10.30
2019-06-26T05:05:17.897Z,9.65
2019-06-26T05:07:48.241Z,9.93
2019-06-26T05:10:18.915Z,10.03
2019-06-26T05:12:50.122Z,10.40
2019-06-26T05:15:21.245Z,10.65
2019-06-26T05:17:51.542Z,10.20
2019-06-26T05:20:22.289Z,10.68
2019-06-26T05:22:53.717Z,10.13
2019-06-26T05:25:24.008Z,9.68
2019-06-26T05:27:54.301Z,10.85
2019-06-26T05:30:25.517Z,10.72
2019-06-26T05:32:56.062Z,11.65
2019-06-26T05:35:26.658Z,10.08
2019-06-26T05:37:58.342Z,10.82
2019-06-26T05:40:28.676Z,10.43
2019-06-26T05:42:59.301Z,11.05
2019-06-26T05:45:30.013Z,9.98
2019-06-26T05:48:00.750Z,10.55
2019-06-26T05:50:31.171Z,11.30
2019-06-26T05:53:01.725Z,10.90
2019-06-26T05:55:32.249Z,11.30
2019-06-26T05:58:02.918Z,10.80
2019-06-26T06:00:33.608Z,12.03
2019-06-26T06:03:03.956Z,11.90
2019-06-26T06:05:34.236Z,12.05
2019-06-26T06:08:04.882Z,12.63
2019-06-26T06:10:35.517Z,12.37
2019-06-26T06:13:06.469Z,12.03
2019-06-26T06:15:37.344Z,12.23
2019-06-26T06:18:08.033Z,13.30
2019-06-26T06:20:39.881Z,12.30
2019-06-26T06:23:10.513Z,13.28
2019-06-26T06:25:40.812Z,13.95
2019-06-26T06:28:11.057Z,13.55
2019-06-26T06:30:41.636Z,13.93
2019-06-26T06:33:11.975Z,14.50
2019-06-26T06:35:42.196Z,15.03
2019-06-26T06:38:14.132Z,15.13
2019-06-26T06:40:44.733Z,15.83
2019-06-26T06:43:16.065Z,15.23
2019-06-26T06:45:46.347Z,16.27
2019-06-26T06:48:16.948Z,15.13
2019-06-26T06:50:47.395Z,14.93
2019-06-26T06:53:17.711Z,15.58
2019-06-26T06:55:47.935Z,14.80
2019-06-26T06:58:18.181Z,15.30
2019-06-26T07:00:48.609Z,14.70
2019-06-26T07:03:18.888Z,14.10
2019-06-26T07:05:49.111Z,13.80
2019-06-26T07:08:19.344Z,13.70
2019-06-26T07:10:49.595Z,12.58
2019-06-26T07:13:19.820Z,12.65
2019-06-26T07:15:50.179Z,11.60
2019-06-26T07:18:20.374Z,11.50
2019-06-26T07:20:50.750Z,11.05
2019-06-26T07:23:21.343Z,11.28
2019-06-26T07:25:51.688Z,10.08
2019-06-26T07:28:22.381Z,10.25
2019-06-26T07:30:54.072Z,10.43
2019-06-26T07:33:25.425Z,10.20
2019-06-26T07:35:55.787Z,10.85
2019-06-26T07:38:26.039Z,10.72
2019-06-26T07:40:56.336Z,10.50
2019-06-26T07:43:26.597Z,10.50
2019-06-26T07:45:56.863Z,10.93
2019-06-26T07:48:27.141Z,10.60
2019-06-26T07:50:57.373Z,11.05
2019-06-26T07:53:27.747Z,10.58
2019-06-26T07:55:57.964Z,10.70
2019-06-26T07:58:28.223Z,10.32
2019-06-26T08:00:58.499Z,10.05
2019-06-26T08:03:28.730Z,10.45
2019-06-26T08:05:58.963Z,10.90
2019-06-26T08:08:29.654Z,10.63
2019-06-26T08:11:00.311Z,11.40
2019-06-26T08:13:30.831Z,10.95
2019-06-26T08:16:01.386Z,11.25
2019-06-26T08:18:32.189Z,10.72
2019-06-26T08:21:12.260Z,11.25
2019-06-26T08:23:36.541Z,10.82
2019-06-26T08:26:07.183Z,10.30
2019-06-26T08:28:37.854Z,10.78
2019-06-26T08:31:08.244Z,11.43
2019-06-26T08:33:38.563Z,12.05
2019-06-26T08:36:08.916Z,11.03
2019-06-26T08:38:39.134Z,12.05
2019-06-26T08:41:09.378Z,12.40
2019-06-26T08:43:39.633Z,11.12
2019-06-26T08:46:10.234Z,10.98
2019-06-26T08:48:41.023Z,12.30
2019-06-26T08:51:11.367Z,11.25
2019-06-26T08:53:41.790Z,12.15
2019-06-26T08:56:12.079Z,11.65
2019-06-26T08:58:42.298Z,12.00
2019-06-26T09:01:12.984Z,11.97
2019-06-26T09:03:43.679Z,11.50
2019-06-26T09:06:14.505Z,11.38
2019-06-26T09:08:45.380Z,11.45
2019-06-26T09:11:15.746Z,12.47
2019-06-26T09:13:46.462Z,12.53
2019-06-26T09:16:17.181Z,12.70
2019-06-26T09:18:47.886Z,15.35
2019-06-26T09:21:18.714Z,12.70
2019-06-26T09:23:49.099Z,11.90
2019-06-26T09:26:19.399Z,11.75
2019-06-26T09:28:50.051Z,11.35
2019-06-26T09:31:20.463Z,11.95
2019-06-26T09:33:50.702Z,12.03
2019-06-26T09:36:21.481Z,12.07
2019-06-26T09:38:51.771Z,12.40
2019-06-26T09:41:22.424Z,12.18
2019-06-26T09:43:53.064Z,12.50
2019-06-26T09:46:23.751Z,12.43
2019-06-26T09:48:55.567Z,12.53
2019-06-26T09:51:25.927Z,12.80
2019-06-26T09:53:56.497Z,12.30
2019-06-26T09:56:27.181Z,12.25
2019-06-26T09:58:57.498Z,18.67
2019-06-26T10:01:27.732Z,15.43
2019-06-26T10:03:58.160Z,13.03
2019-06-26T10:06:28.754Z,12.70
2019-06-26T10:08:59.509Z,13.28
2019-06-26T10:11:30.164Z,13.43
2019-06-26T10:14:00.894Z,14.58
2019-06-26T10:16:31.525Z,12.45
2019-06-26T10:19:10.321Z,13.93
2019-06-26T10:21:34.582Z,13.58
2019-06-26T10:24:04.900Z,13.22
2019-06-26T10:26:35.504Z,12.93
2019-06-26T10:29:05.838Z,13.22
2019-06-26T10:31:36.115Z,12.95
2019-06-26T10:34:09.951Z,14.30
2019-06-26T10:36:38.894Z,13.38
2019-06-26T10:39:09.577Z,21.17
2019-06-26T10:41:40.168Z,14.07
2019-06-26T10:44:10.822Z,14.38
2019-06-26T10:46:41.503Z,13.83
2019-06-26T10:49:25.765Z,13.80
2019-06-26T10:51:44.289Z,14.53
2019-06-26T10:54:14.541Z,13.20
2019-06-26T10:56:45.208Z,14.00
2019-06-26T10:59:15.929Z,13.58
2019-06-26T11:01:46.240Z,14.18
2019-06-26T11:04:17.913Z,14.38
2019-06-26T11:06:48.430Z,13.55
2019-06-26T11:09:19.132Z,14.98
2019-06-26T11:11:51.056Z,14.10
2019-06-26T11:14:21.364Z,14.15
2019-06-26T11:16:51.628Z,14.33
2019-06-26T11:19:22.213Z,14.47
2019-06-26T11:21:52.877Z,15.08
2019-06-26T11:24:23.538Z,15.20
2019-06-26T11:26:53.866Z,16.42
2019-06-26T11:29:24.093Z,23.57
2019-06-26T11:31:54.351Z,14.40
2019-06-26T11:34:24.840Z,14.95
2019-06-26T11:37:03.635Z,14.83
2019-06-26T11:39:27.780Z,14.18
2019-06-26T11:41:58.537Z,15.20
2019-06-26T11:44:28.823Z,15.18
2019-06-26T11:47:00.671Z,15.28
2019-06-26T11:49:31.555Z,15.32
2019-06-26T11:52:01.989Z,14.25
2019-06-26T11:54:32.238Z,14.73
2019-06-26T11:57:02.580Z,14.80
2019-06-26T11:59:32.864Z,15.75
2019-06-26T12:02:03.058Z,14.75
2019-06-26T12:04:33.330Z,15.80
2019-06-26T12:07:03.657Z,15.23
2019-06-26T12:09:33.872Z,16.30
2019-06-26T12:12:04.832Z,15.70
2019-06-26T12:14:35.427Z,15.40
2019-06-26T12:17:06.429Z,15.85
2019-06-26T12:19:37.153Z,15.18
2019-06-26T12:22:07.453Z,14.33
2019-06-26T12:24:37.698Z,15.05
2019-06-26T12:27:08.187Z,15.05
2019-06-26T12:29:38.431Z,13.40
2019-06-26T12:32:08.745Z,14.80
2019-06-26T12:34:39.381Z,14.28
2019-06-26T12:37:10.085Z,14.35
2019-06-26T12:39:40.515Z,13.60
2019-06-26T12:42:11.153Z,13.68
2019-06-26T12:44:41.504Z,14.23
2019-06-26T12:47:11.764Z,13.88
2019-06-26T12:49:43.576Z,14.03
2019-06-26T12:52:16.961Z,13.20
2019-06-26T12:54:45.987Z,13.22
2019-06-26T12:57:16.236Z,13.80
2019-06-26T12:59:56.544Z,14.35
2019-06-26T13:02:18.792Z,13.90
2019-06-26T13:04:49.516Z,14.47
2019-06-26T13:07:19.841Z,14.07
2019-06-26T13:09:50.463Z,14.33
2019-06-26T13:12:21.140Z,13.98
2019-06-26T13:14:51.478Z,13.83
2019-06-26T13:17:21.833Z,13.43
2019-06-26T13:19:52.077Z,15.30
2019-06-26T13:22:22.357Z,14.03
2019-06-26T13:24:53.364Z,15.60
2019-06-26T13:27:25.157Z,15.70
2019-06-26T13:29:56.701Z,15.43
2019-06-26T13:32:27.010Z,15.90
2019-06-26T13:34:59.811Z,15.75
2019-06-26T13:37:30.127Z,14.30
2019-06-26T13:40:00.725Z,13.90
2019-06-26T13:42:31.063Z,13.08
2019-06-26T13:45:01.459Z,13.40
2019-06-26T13:47:33.339Z,14.05
2019-06-26T13:50:06.623Z,15.35
2019-06-26T13:52:36.950Z,14.38
2019-06-26T13:55:08.543Z,13.28
2019-06-26T13:57:38.962Z,12.15
2019-06-26T14:00:11.267Z,13.30
2019-06-26T14:02:41.931Z,13.78
2019-06-26T14:05:13.350Z,12.90
2019-06-26T14:07:43.542Z,11.18
2019-06-26T14:10:16.176Z,11.63
2019-06-26T14:12:46.485Z,11.03
2019-06-26T14:15:19.265Z,10.10
2019-06-26T14:17:49.628Z,10.10
2019-06-26T14:20:21.205Z,9.70
2019-06-26T14:22:51.849Z,9.68
2019-06-26T14:25:22.705Z,9.58
2019-06-26T14:27:52.995Z,8.68
2019-06-26T14:30:27.695Z,8.10
2019-06-26T14:32:56.189Z,8.10
2019-06-26T14:35:27.036Z,8.33
2019-06-26T14:37:57.830Z,8.70
2019-06-26T14:40:28.141Z,8.83
2019-06-26T14:42:58.821Z,8.45
2019-06-26T14:45:29.182Z,9.10
2019-06-26T14:47:59.811Z,9.40
2019-06-26T14:50:30.215Z,9.13
2019-06-26T14:53:00.539Z,9.25
2019-06-26T14:55:30.917Z,9.28
2019-06-26T14:58:01.170Z,9.03
2019-06-26T15:00:31.454Z,9.55
2019-06-26T15:03:01.702Z,9.20
2019-06-26T15:05:31.979Z,9.55
2019-06-26T15:08:03.210Z,9.65
2019-06-26T15:10:33.815Z,9.78
2019-06-26T15:13:04.499Z,9.53
2019-06-26T15:15:35.180Z,9.70
2019-06-26T15:18:05.802Z,9.40
2019-06-26T15:20:36.069Z,10.32
2019-06-26T15:23:06.433Z,9.80
2019-06-26T15:25:36.762Z,9.70
2019-06-26T15:28:10.371Z,9.68
2019-06-26T15:30:41.185Z,9.85
2019-06-26T15:33:11.825Z,9.95
2019-06-26T15:35:42.814Z,10.08
2019-06-26T15:38:13.107Z,9.65
2019-06-26T15:40:44.968Z,10.08
2019-06-26T15:43:15.615Z,10.63
2019-06-26T15:45:45.942Z,10.38
2019-06-26T15:48:16.181Z,10.18
2019-06-26T15:50:46.773Z,10.08
2019-06-26T15:53:17.106Z,10.68
2019-06-26T15:55:47.530Z,10.75
2019-06-26T15:58:17.800Z,10.63
2019-06-26T16:00:48.060Z,10.70
2019-06-26T16:03:18.475Z,12.33
2019-06-26T16:05:52.167Z,10.90
2019-06-26T16:08:22.571Z,11.43
2019-06-26T16:10:52.813Z,11.80
2019-06-26T16:13:23.084Z,11.80
2019-06-26T16:15:53.389Z,11.43
2019-06-26T16:18:25.251Z,10.08
2019-06-26T16:20:55.551Z,11.20
2019-06-26T16:23:25.802Z,10.63
2019-06-26T16:25:56.048Z,10.28
2019-06-26T16:28:26.587Z,10.85
2019-06-26T16:30:57.193Z,10.45
2019-06-26T16:33:28.394Z,10.58
2019-06-26T16:36:00.568Z,11.90
2019-06-26T16:38:30.900Z,10.30
2019-06-26T16:41:01.167Z,10.20
2019-06-26T16:43:31.430Z,10.20
2019-06-26T16:46:01.706Z,9.90
2019-06-26T16:48:31.962Z,9.60
2019-06-26T16:51:02.368Z,9.88
2019-06-26T16:53:35.483Z,10.38
2019-06-26T16:56:05.569Z,9.55
2019-06-26T16:58:35.857Z,9.95
2019-06-26T17:01:07.564Z,9.58
2019-06-26T17:03:37.862Z,10.35
2019-06-26T17:06:08.603Z,10.38
2019-06-26T17:08:38.934Z,9.08
2019-06-26T17:11:09.695Z,10.08
2019-06-26T17:13:40.526Z,9.28
2019-06-26T17:16:10.840Z,9.73
2019-06-26T17:18:42.678Z,9.75
2019-06-26T17:21:13.431Z,10.10
2019-06-26T17:23:43.953Z,9.73
2019-06-26T17:26:14.228Z,9.95
2019-06-26T17:28:44.534Z,9.80
2019-06-26T17:31:15.394Z,10.13
2019-06-26T17:33:45.669Z,10.08
2019-06-26T17:36:15.921Z,9.53
2019-06-26T17:38:46.594Z,9.20
2019-06-26T17:41:17.515Z,9.35
2019-06-26T17:43:48.203Z,9.90
2019-06-26T17:46:18.490Z,9.80
2019-06-26T17:48:48.814Z,8.83
2019-06-26T17:51:19.055Z,9.05
2019-06-26T17:53:49.306Z,8.80
2019-06-26T17:56:19.909Z,9.10
2019-06-26T17:58:50.701Z,8.90
2019-06-26T18:01:20.989Z,8.83
2019-06-26T18:03:51.294Z,8.60
2019-06-26T18:06:23.988Z,8.93
2019-06-26T18:08:54.338Z,8.28
2019-06-26T18:11:24.926Z,8.10
2019-06-26T18:13:55.255Z,7.58
2019-06-26T18:16:25.506Z,8.60
2019-06-26T18:18:56.802Z,8.55
2019-06-26T18:21:27.404Z,8.30
2019-06-26T18:23:57.676Z,7.90
2019-06-26T18:26:27.922Z,10.18
2019-06-26T18:28:58.153Z,11.38
2019-06-26T18:31:30.591Z,11.38
2019-06-26T18:34:00.431Z,10.63
2019-06-26T18:36:33.729Z,9.40
2019-06-26T18:39:06.698Z,10.48
2019-06-26T18:41:37.635Z,10.68
2019-06-26T18:44:08.082Z,11.43
2019-06-26T18:46:38.374Z,11.33
2019-06-26T18:49:08.611Z,10.38
2019-06-26T18:51:38.838Z,9.68
2019-06-26T18:54:09.057Z,9.45
2019-06-26T18:56:39.371Z,9.45
2019-06-26T18:59:09.969Z,9.63
2019-06-26T19:01:40.269Z,10.43
2019-06-26T19:04:11.283Z,10.08
2019-06-26T19:06:41.532Z,10.45
2019-06-26T19:09:12.107Z,11.25
2019-06-26T19:11:42.489Z,10.72
2019-06-26T19:14:14.386Z,10.90
2019-06-26T19:16:44.791Z,12.13
2019-06-26T19:19:15.218Z,11.30
2019-06-26T19:21:45.317Z,11.22
2019-06-26T19:24:15.585Z,11.05
2019-06-26T19:26:46.287Z,11.35
2019-06-26T19:29:16.595Z,10.78
2019-06-26T19:31:46.926Z,12.55
2019-06-26T19:34:17.310Z,13.60
2019-06-26T19:36:50.536Z,15.63
2019-06-26T19:39:21.102Z,10.90
2019-06-26T19:41:51.732Z,10.88
2019-06-26T19:44:21.948Z,12.50
2019-06-26T19:46:52.276Z,12.03
2019-06-26T19:49:22.592Z,11.10
2019-06-26T19:51:53.156Z,11.10
2019-06-26T19:54:27.769Z,11.50
2019-06-26T19:56:55.758Z,10.25
2019-06-26T19:59:26.075Z,12.43
2019-06-26T20:01:56.316Z,16.75
2019-06-26T20:04:26.633Z,12.40
2019-06-26T20:06:56.877Z,12.55
2019-06-26T20:09:27.373Z,11.05
2019-06-26T20:11:57.602Z,11.88
2019-06-26T20:14:27.939Z,12.03
2019-06-26T20:16:58.139Z,11.35
2019-06-26T20:19:28.850Z,11.90
2019-06-26T20:21:59.566Z,11.03
2019-06-26T20:24:43.585Z,12.28
2019-06-26T20:27:01.941Z,12.75
2019-06-26T20:29:32.249Z,12.63
2019-06-26T20:32:02.611Z,12.05
2019-06-26T20:34:33.185Z,12.15
2019-06-26T20:37:03.890Z,12.98
2019-06-26T20:39:34.594Z,12.65
2019-06-26T20:42:05.056Z,11.88
2019-06-26T20:44:35.279Z,11.53
2019-06-26T20:47:05.689Z,12.30
2019-06-26T20:49:52.178Z,12.00
2019-06-26T20:52:10.748Z,12.07
2019-06-26T20:54:41.509Z,11.97
2019-06-26T20:57:11.863Z,12.10
2019-06-26T20:59:42.753Z,15.15
2019-06-26T21:02:13.080Z,14.50
2019-06-26T21:04:43.340Z,12.13
2019-06-26T21:07:14.103Z,12.33
2019-06-26T21:09:44.882Z,12.68
2019-06-26T21:12:15.854Z,12.20
2019-06-26T21:14:46.616Z,12.53
2019-06-26T21:17:17.401Z,12.80
2019-06-26T21:19:48.066Z,13.62
2019-06-26T21:22:18.459Z,13.18
2019-06-26T21:24:49.174Z,12.75
2019-06-26T21:27:32.172Z,15.20
2019-06-26T21:30:04.249Z,16.52
2019-06-26T21:32:38.684Z,15.18
2019-06-26T21:35:11.112Z,12.60
2019-06-26T21:37:41.825Z,13.10
2019-06-26T21:40:12.717Z,12.65
2019-06-26T21:42:43.507Z,12.93
2019-06-26T21:45:14.891Z,12.15
2019-06-26T21:47:45.834Z,13.15
2019-06-26T21:50:18.357Z,12.95
2019-06-26T21:52:51.014Z,13.95
2019-06-26T21:55:33.925Z,14.47
2019-06-26T21:58:12.659Z,13.30
2019-06-26T22:01:01.120Z,13.45
2019-06-26T22:03:50.020Z,14.73
2019-06-26T22:06:37.637Z,13.03
2019-06-26T22:09:13.050Z,12.93
2019-06-26T22:11:48.709Z,13.70
2019-06-26T22:14:27.691Z,13.20
2019-06-26T22:16:58.266Z,13.15
2019-06-26T22:19:28.647Z,13.75
2019-06-26T22:21:59.560Z,12.45
2019-06-26T22:24:29.876Z,13.35
2019-06-26T22:27:00.632Z,13.50
2019-06-26T22:29:31.080Z,13.18
2019-06-26T22:32:01.814Z,13.05
2019-06-26T22:34:32.100Z,13.58
2019-06-26T22:37:03.174Z,13.25
2019-06-26T22:39:33.830Z,12.60
2019-06-26T22:42:04.675Z,12.90
2019-06-26T22:44:34.997Z,12.70
2019-06-26T22:47:05.998Z,13.10
2019-06-26T22:49:36.309Z,14.78
2019-06-26T22:52:07.013Z,13.60
2019-06-26T22:54:37.762Z,13.53
2019-06-26T22:57:08.155Z,12.25
2019-06-26T22:59:38.784Z,12.45
2019-06-26T23:02:09.825Z,12.07
2019-06-26T23:04:40.323Z,12.53
2019-06-26T23:07:10.624Z,12.45
2019-06-26T23:09:40.858Z,12.10
2019-06-26T23:12:11.512Z,12.35
2019-06-26T23:14:42.401Z,12.47
2019-06-26T23:17:12.779Z,12.40
2019-06-26T23:19:43.039Z,12.07
2019-06-26T23:22:14.599Z,12.05
2019-06-26T23:24:44.917Z,11.45
2019-06-26T23:27:15.530Z,11.80
2019-06-26T23:29:45.845Z,11.68
2019-06-26T23:32:16.165Z,11.10
2019-06-26T23:34:46.406Z,10.90
2019-06-26T23:37:16.660Z,11.60
2019-06-26T23:39:46.904Z,11.30
2019-06-26T23:42:17.163Z,11.38
2019-06-26T23:44:47.389Z,11.38
2019-06-26T23:47:18.014Z,12.35
2019-06-26T23:49:48.662Z,11.05
2019-06-26T23:52:19.015Z,11.38
2019-06-26T23:54:49.342Z,11.40
2019-06-26T23:57:19.621Z,11.38
2019-06-26T23:59:49.865Z,11.88
